sensor_id;sensor_type;location;lat;lon;timestamp;temperature;humidity
35373;DHT22;21476;51.652;7.852;2022-09-09T00:02:05;15.90;99.90
35373;DHT22;21476;51.652;7.852;2022-09-09T00:04:35;15.80;99.90
35373;DHT22;21476;51.652;7.852;2022-09-09T00:07:13;15.80;99.90
35373;DHT22;21476;51.652;7.852;2022-09-09T00:12:57;15.70;99.90
35373;DHT22;21476;51.652;7.852;2022-09-09T00:18:33;15.70;99.90
35373;DHT22;21476;51.652;7.852;2022-09-09T00:23:57;15.60;99.90
35373;DHT22;21476;51.652;7.852;2022-09-09T00:26:40;15.60;99.90
35373;DHT22;21476;51.652;7.852;2022-09-09T00:31:33;15.50;99.90
35373;DHT22;21476;51.652;7.852;2022-09-09T00:34:11;15.50;99.90
35373;DHT22;21476;51.652;7.852;2022-09-09T00:36:40;15.50;99.90
35373;DHT22;21476;51.652;7.852;2022-09-09T00:39:14;15.40;99.90
35373;DHT22;21476;51.652;7.852;2022-09-09T00:47:43;15.30;99.90
35373;DHT22;21476;51.652;7.852;2022-09-09T00:54:00;15.20;99.90
35373;DHT22;21476;51.652;7.852;2022-09-09T00:58:42;15.10;99.90
35373;DHT22;21476;51.652;7.852;2022-09-09T01:01:12;15.10;99.90
35373;DHT22;21476;51.652;7.852;2022-09-09T01:06:29;15.00;99.90
35373;DHT22;21476;51.652;7.852;2022-09-09T01:09:10;14.90;99.90
35373;DHT22;21476;51.652;7.852;2022-09-09T01:17:14;14.60;99.90
35373;DHT22;21476;51.652;7.852;2022-09-09T01:25:22;14.60;99.90
35373;DHT22;21476;51.652;7.852;2022-09-09T01:27:55;14.70;99.90
35373;DHT22;21476;51.652;7.852;2022-09-09T01:30:22;14.70;99.90
35373;DHT22;21476;51.652;7.852;2022-09-09T01:32:55;14.70;99.90
35373;DHT22;21476;51.652;7.852;2022-09-09T01:35:37;14.80;99.90
35373;DHT22;21476;51.652;7.852;2022-09-09T01:38:04;14.70;99.90
35373;DHT22;21476;51.652;7.852;2022-09-09T01:40:30;14.60;99.90
35373;DHT22;21476;51.652;7.852;2022-09-09T01:42:56;14.60;99.90
35373;DHT22;21476;51.652;7.852;2022-09-09T01:45:22;14.70;99.90
35373;DHT22;21476;51.652;7.852;2022-09-09T01:47:49;14.70;99.90
35373;DHT22;21476;51.652;7.852;2022-09-09T01:50:16;14.70;99.90
35373;DHT22;21476;51.652;7.852;2022-09-09T01:52:44;14.70;99.90
35373;DHT22;21476;51.652;7.852;2022-09-09T01:55:11;14.70;99.90
35373;DHT22;21476;51.652;7.852;2022-09-09T01:58:03;14.70;99.90
35373;DHT22;21476;51.652;7.852;2022-09-09T02:00:30;14.70;99.90
35373;DHT22;21476;51.652;7.852;2022-09-09T02:05:49;14.80;99.90
35373;DHT22;21476;51.652;7.852;2022-09-09T02:08:40;14.80;99.90
35373;DHT22;21476;51.652;7.852;2022-09-09T02:11:14;14.70;99.90
35373;DHT22;21476;51.652;7.852;2022-09-09T02:13:42;14.60;99.90
35373;DHT22;21476;51.652;7.852;2022-09-09T02:21:17;14.50;99.90
35373;DHT22;21476;51.652;7.852;2022-09-09T02:23:44;14.60;99.90
35373;DHT22;21476;51.652;7.852;2022-09-09T02:26:13;14.60;99.90
35373;DHT22;21476;51.652;7.852;2022-09-09T02:28:44;14.60;99.90
35373;DHT22;21476;51.652;7.852;2022-09-09T02:31:11;14.70;99.90
35373;DHT22;21476;51.652;7.852;2022-09-09T02:33:41;14.70;99.90
35373;DHT22;21476;51.652;7.852;2022-09-09T02:36:09;14.60;99.90
35373;DHT22;21476;51.652;7.852;2022-09-09T02:38:41;14.60;99.90
35373;DHT22;21476;51.652;7.852;2022-09-09T02:41:08;14.60;99.90
35373;DHT22;21476;51.652;7.852;2022-09-09T02:43:34;14.70;99.90
35373;DHT22;21476;51.652;7.852;2022-09-09T02:46:17;14.70;99.90
35373;DHT22;21476;51.652;7.852;2022-09-09T02:49:08;14.60;99.90
35373;DHT22;21476;51.652;7.852;2022-09-09T02:51:52;14.70;99.90
35373;DHT22;21476;51.652;7.852;2022-09-09T02:54:28;14.80;99.90
35373;DHT22;21476;51.652;7.852;2022-09-09T02:57:23;14.90;99.90
35373;DHT22;21476;51.652;7.852;2022-09-09T02:59:49;15.00;99.90
35373;DHT22;21476;51.652;7.852;2022-09-09T03:02:15;15.00;99.90
35373;DHT22;21476;51.652;7.852;2022-09-09T03:04:41;15.10;99.90
35373;DHT22;21476;51.652;7.852;2022-09-09T03:07:10;15.10;99.90
35373;DHT22;21476;51.652;7.852;2022-09-09T03:09:35;15.10;99.90
35373;DHT22;21476;51.652;7.852;2022-09-09T03:12:01;15.20;99.90
35373;DHT22;21476;51.652;7.852;2022-09-09T03:14:29;15.20;99.90
35373;DHT22;21476;51.652;7.852;2022-09-09T03:16:56;15.30;99.90
35373;DHT22;21476;51.652;7.852;2022-09-09T03:19:23;15.20;99.90
35373;DHT22;21476;51.652;7.852;2022-09-09T03:21:49;15.20;99.90
35373;DHT22;21476;51.652;7.852;2022-09-09T03:24:15;15.30;99.90
35373;DHT22;21476;51.652;7.852;2022-09-09T03:26:41;15.40;99.90
35373;DHT22;21476;51.652;7.852;2022-09-09T03:29:10;15.40;99.90
35373;DHT22;21476;51.652;7.852;2022-09-09T03:31:38;15.40;99.90
35373;DHT22;21476;51.652;7.852;2022-09-09T03:34:03;15.40;99.90
35373;DHT22;21476;51.652;7.852;2022-09-09T03:36:30;15.50;99.90
35373;DHT22;21476;51.652;7.852;2022-09-09T03:38:55;15.40;99.90
35373;DHT22;21476;51.652;7.852;2022-09-09T03:41:22;15.40;99.90
35373;DHT22;21476;51.652;7.852;2022-09-09T03:43:53;15.50;99.90
35373;DHT22;21476;51.652;7.852;2022-09-09T03:46:20;15.50;99.90
35373;DHT22;21476;51.652;7.852;2022-09-09T03:48:46;15.50;99.90
35373;DHT22;21476;51.652;7.852;2022-09-09T03:51:12;15.50;99.90
35373;DHT22;21476;51.652;7.852;2022-09-09T03:53:38;15.50;99.90
35373;DHT22;21476;51.652;7.852;2022-09-09T03:56:05;15.50;99.90
35373;DHT22;21476;51.652;7.852;2022-09-09T03:58:34;15.50;99.90
35373;DHT22;21476;51.652;7.852;2022-09-09T04:01:05;15.40;99.90
35373;DHT22;21476;51.652;7.852;2022-09-09T04:03:31;15.40;99.90
35373;DHT22;21476;51.652;7.852;2022-09-09T04:05:59;15.50;99.90
35373;DHT22;21476;51.652;7.852;2022-09-09T04:08:25;15.50;99.90
35373;DHT22;21476;51.652;7.852;2022-09-09T04:10:52;15.50;99.90
35373;DHT22;21476;51.652;7.852;2022-09-09T04:13:18;15.50;99.90
35373;DHT22;21476;51.652;7.852;2022-09-09T04:15:51;15.50;99.90
35373;DHT22;21476;51.652;7.852;2022-09-09T04:18:17;15.50;99.90
35373;DHT22;21476;51.652;7.852;2022-09-09T04:20:45;15.50;99.90
35373;DHT22;21476;51.652;7.852;2022-09-09T04:23:10;15.50;99.90
35373;DHT22;21476;51.652;7.852;2022-09-09T04:25:37;15.50;99.90
35373;DHT22;21476;51.652;7.852;2022-09-09T04:28:03;15.50;99.90
35373;DHT22;21476;51.652;7.852;2022-09-09T04:30:29;15.50;99.90
35373;DHT22;21476;51.652;7.852;2022-09-09T04:32:54;15.50;99.90
35373;DHT22;21476;51.652;7.852;2022-09-09T04:35:20;15.50;99.90
35373;DHT22;21476;51.652;7.852;2022-09-09T04:37:46;15.60;99.90
35373;DHT22;21476;51.652;7.852;2022-09-09T04:40:11;15.50;99.90
35373;DHT22;21476;51.652;7.852;2022-09-09T04:42:37;15.60;99.90
35373;DHT22;21476;51.652;7.852;2022-09-09T04:45:05;15.50;99.90
35373;DHT22;21476;51.652;7.852;2022-09-09T04:47:32;15.60;99.90
35373;DHT22;21476;51.652;7.852;2022-09-09T04:49:57;15.60;99.90
35373;DHT22;21476;51.652;7.852;2022-09-09T04:52:23;15.60;99.90
35373;DHT22;21476;51.652;7.852;2022-09-09T04:54:48;15.60;99.90
35373;DHT22;21476;51.652;7.852;2022-09-09T04:57:14;15.60;99.90
35373;DHT22;21476;51.652;7.852;2022-09-09T04:59:40;15.60;99.90
35373;DHT22;21476;51.652;7.852;2022-09-09T05:02:06;15.60;99.90
35373;DHT22;21476;51.652;7.852;2022-09-09T05:04:32;15.70;99.90
35373;DHT22;21476;51.652;7.852;2022-09-09T05:06:58;15.70;99.90
35373;DHT22;21476;51.652;7.852;2022-09-09T05:09:24;15.70;99.90
35373;DHT22;21476;51.652;7.852;2022-09-09T05:11:50;15.80;99.90
35373;DHT22;21476;51.652;7.852;2022-09-09T05:14:16;15.80;99.90
35373;DHT22;21476;51.652;7.852;2022-09-09T05:16:44;15.80;99.90
35373;DHT22;21476;51.652;7.852;2022-09-09T05:19:10;15.90;99.90
35373;DHT22;21476;51.652;7.852;2022-09-09T05:21:36;16.00;99.90
35373;DHT22;21476;51.652;7.852;2022-09-09T05:24:02;16.10;99.90
35373;DHT22;21476;51.652;7.852;2022-09-09T05:26:28;16.10;99.90
35373;DHT22;21476;51.652;7.852;2022-09-09T05:28:54;16.20;99.90
35373;DHT22;21476;51.652;7.852;2022-09-09T05:31:21;16.20;99.90
35373;DHT22;21476;51.652;7.852;2022-09-09T05:33:47;16.20;99.90
35373;DHT22;21476;51.652;7.852;2022-09-09T05:36:19;16.30;99.90
35373;DHT22;21476;51.652;7.852;2022-09-09T05:38:45;16.40;99.90
35373;DHT22;21476;51.652;7.852;2022-09-09T05:41:12;16.50;99.90
35373;DHT22;21476;51.652;7.852;2022-09-09T05:43:40;16.50;99.90
35373;DHT22;21476;51.652;7.852;2022-09-09T05:46:09;16.50;99.90
35373;DHT22;21476;51.652;7.852;2022-09-09T05:48:43;16.40;99.90
35373;DHT22;21476;51.652;7.852;2022-09-09T05:51:16;16.40;99.90
35373;DHT22;21476;51.652;7.852;2022-09-09T05:53:43;16.50;99.90
35373;DHT22;21476;51.652;7.852;2022-09-09T05:56:20;16.50;99.90
35373;DHT22;21476;51.652;7.852;2022-09-09T05:58:47;16.50;99.90
35373;DHT22;21476;51.652;7.852;2022-09-09T06:01:16;16.60;99.90
35373;DHT22;21476;51.652;7.852;2022-09-09T06:03:44;16.50;99.90
35373;DHT22;21476;51.652;7.852;2022-09-09T06:06:15;16.50;99.90
35373;DHT22;21476;51.652;7.852;2022-09-09T06:08:43;16.60;99.90
35373;DHT22;21476;51.652;7.852;2022-09-09T06:11:24;16.50;99.90
35373;DHT22;21476;51.652;7.852;2022-09-09T06:13:50;16.60;99.90
35373;DHT22;21476;51.652;7.852;2022-09-09T06:16:20;16.60;99.90
35373;DHT22;21476;51.652;7.852;2022-09-09T06:18:48;16.60;99.90
35373;DHT22;21476;51.652;7.852;2022-09-09T06:21:19;16.70;99.90
35373;DHT22;21476;51.652;7.852;2022-09-09T06:23:46;16.70;99.90
35373;DHT22;21476;51.652;7.852;2022-09-09T06:26:33;16.70;99.90
35373;DHT22;21476;51.652;7.852;2022-09-09T06:29:00;16.70;99.90
35373;DHT22;21476;51.652;7.852;2022-09-09T06:31:28;16.70;99.90
35373;DHT22;21476;51.652;7.852;2022-09-09T06:33:57;16.60;99.90
35373;DHT22;21476;51.652;7.852;2022-09-09T06:36:27;16.60;99.90
35373;DHT22;21476;51.652;7.852;2022-09-09T06:38:54;16.70;99.90
35373;DHT22;21476;51.652;7.852;2022-09-09T06:41:21;16.60;99.90
35373;DHT22;21476;51.652;7.852;2022-09-09T06:43:48;16.70;99.90
35373;DHT22;21476;51.652;7.852;2022-09-09T06:46:22;16.80;99.90
35373;DHT22;21476;51.652;7.852;2022-09-09T06:48:48;16.90;99.90
35373;DHT22;21476;51.652;7.852;2022-09-09T06:51:19;17.00;99.90
35373;DHT22;21476;51.652;7.852;2022-09-09T06:53:53;17.10;99.90
35373;DHT22;21476;51.652;7.852;2022-09-09T06:58:54;17.40;99.90
35373;DHT22;21476;51.652;7.852;2022-09-09T07:01:22;17.60;99.90
35373;DHT22;21476;51.652;7.852;2022-09-09T07:03:50;17.70;99.90
35373;DHT22;21476;51.652;7.852;2022-09-09T07:06:18;17.70;99.90
35373;DHT22;21476;51.652;7.852;2022-09-09T07:08:49;17.80;99.90
35373;DHT22;21476;51.652;7.852;2022-09-09T07:11:15;17.90;99.90
35373;DHT22;21476;51.652;7.852;2022-09-09T07:13:41;17.90;99.90
35373;DHT22;21476;51.652;7.852;2022-09-09T07:16:12;18.00;99.90
35373;DHT22;21476;51.652;7.852;2022-09-09T07:18:39;18.00;99.90
35373;DHT22;21476;51.652;7.852;2022-09-09T07:21:05;17.90;99.90
35373;DHT22;21476;51.652;7.852;2022-09-09T07:23:32;17.80;99.90
35373;DHT22;21476;51.652;7.852;2022-09-09T07:25:58;17.70;99.90
35373;DHT22;21476;51.652;7.852;2022-09-09T07:28:25;17.70;99.90
35373;DHT22;21476;51.652;7.852;2022-09-09T07:30:58;17.70;99.90
35373;DHT22;21476;51.652;7.852;2022-09-09T07:33:25;17.80;99.90
35373;DHT22;21476;51.652;7.852;2022-09-09T07:35:51;18.00;99.90
35373;DHT22;21476;51.652;7.852;2022-09-09T07:38:18;18.10;99.90
35373;DHT22;21476;51.652;7.852;2022-09-09T07:40:44;18.30;99.90
35373;DHT22;21476;51.652;7.852;2022-09-09T07:43:10;18.40;99.90
35373;DHT22;21476;51.652;7.852;2022-09-09T07:45:37;18.50;99.90
35373;DHT22;21476;51.652;7.852;2022-09-09T07:48:03;18.60;99.90
35373;DHT22;21476;51.652;7.852;2022-09-09T07:50:30;18.80;99.90
35373;DHT22;21476;51.652;7.852;2022-09-09T07:52:56;18.70;99.90
35373;DHT22;21476;51.652;7.852;2022-09-09T07:55:22;18.70;99.90
35373;DHT22;21476;51.652;7.852;2022-09-09T07:57:53;18.60;99.90
35373;DHT22;21476;51.652;7.852;2022-09-09T08:00:21;18.50;99.90
35373;DHT22;21476;51.652;7.852;2022-09-09T08:02:47;18.30;99.90
35373;DHT22;21476;51.652;7.852;2022-09-09T08:05:14;18.30;99.90
35373;DHT22;21476;51.652;7.852;2022-09-09T08:07:40;18.30;99.90
35373;DHT22;21476;51.652;7.852;2022-09-09T08:10:06;18.50;99.90
35373;DHT22;21476;51.652;7.852;2022-09-09T08:12:32;19.00;99.90
35373;DHT22;21476;51.652;7.852;2022-09-09T08:14:57;19.30;99.90
35373;DHT22;21476;51.652;7.852;2022-09-09T08:17:23;19.60;99.90
35373;DHT22;21476;51.652;7.852;2022-09-09T08:19:49;20.20;99.90
35373;DHT22;21476;51.652;7.852;2022-09-09T08:22:15;21.20;99.90
35373;DHT22;21476;51.652;7.852;2022-09-09T08:24:40;21.90;99.90
35373;DHT22;21476;51.652;7.852;2022-09-09T08:27:06;22.40;99.90
35373;DHT22;21476;51.652;7.852;2022-09-09T08:29:32;23.40;99.90
35373;DHT22;21476;51.652;7.852;2022-09-09T08:31:58;24.50;99.90
35373;DHT22;21476;51.652;7.852;2022-09-09T08:34:25;24.80;99.90
35373;DHT22;21476;51.652;7.852;2022-09-09T08:36:53;24.40;99.90
35373;DHT22;21476;51.652;7.852;2022-09-09T08:39:20;23.80;99.90
35373;DHT22;21476;51.652;7.852;2022-09-09T08:45:00;22.70;99.90
35373;DHT22;21476;51.652;7.852;2022-09-09T08:50:16;22.10;99.90
35373;DHT22;21476;51.652;7.852;2022-09-09T08:52:53;22.60;99.90
35373;DHT22;21476;51.652;7.852;2022-09-09T08:55:46;22.40;99.90
35373;DHT22;21476;51.652;7.852;2022-09-09T09:04:02;21.50;99.90
35373;DHT22;21476;51.652;7.852;2022-09-09T09:07:00;21.40;99.90
35373;DHT22;21476;51.652;7.852;2022-09-09T09:09:46;21.40;99.90
35373;DHT22;21476;51.652;7.852;2022-09-09T09:12:22;21.00;99.90
35373;DHT22;21476;51.652;7.852;2022-09-09T09:14:49;20.70;99.90
35373;DHT22;21476;51.652;7.852;2022-09-09T09:17:23;20.90;99.90
35373;DHT22;21476;51.652;7.852;2022-09-09T09:19:50;21.00;99.90
35373;DHT22;21476;51.652;7.852;2022-09-09T09:22:30;21.00;99.90
35373;DHT22;21476;51.652;7.852;2022-09-09T09:27:38;21.20;99.90
35373;DHT22;21476;51.652;7.852;2022-09-09T09:30:26;21.40;99.90
35373;DHT22;21476;51.652;7.852;2022-09-09T09:33:21;21.60;99.90
35373;DHT22;21476;51.652;7.852;2022-09-09T09:35:50;21.60;99.90
35373;DHT22;21476;51.652;7.852;2022-09-09T09:38:24;21.70;99.90
35373;DHT22;21476;51.652;7.852;2022-09-09T09:40:53;21.60;99.90
35373;DHT22;21476;51.652;7.852;2022-09-09T09:45:51;21.70;99.90
35373;DHT22;21476;51.652;7.852;2022-09-09T09:48:17;22.60;99.90
35373;DHT22;21476;51.652;7.852;2022-09-09T09:51:02;22.80;99.90
35373;DHT22;21476;51.652;7.852;2022-09-09T09:53:33;23.40;99.90
35373;DHT22;21476;51.652;7.852;2022-09-09T09:56:01;23.50;99.90
35373;DHT22;21476;51.652;7.852;2022-09-09T09:58:31;23.70;99.90
35373;DHT22;21476;51.652;7.852;2022-09-09T10:01:00;23.30;99.90
35373;DHT22;21476;51.652;7.852;2022-09-09T10:03:31;22.90;99.90
35373;DHT22;21476;51.652;7.852;2022-09-09T10:05:57;23.00;99.90
35373;DHT22;21476;51.652;7.852;2022-09-09T10:08:27;23.80;99.90
35373;DHT22;21476;51.652;7.852;2022-09-09T10:13:26;24.30;99.90
35373;DHT22;21476;51.652;7.852;2022-09-09T10:19:30;24.80;99.90
35373;DHT22;21476;51.652;7.852;2022-09-09T10:29:57;22.90;99.90
35373;DHT22;21476;51.652;7.852;2022-09-09T10:32:36;22.90;99.90
35373;DHT22;21476;51.652;7.852;2022-09-09T10:35:24;23.40;99.90
35373;DHT22;21476;51.652;7.852;2022-09-09T10:38:14;23.70;99.90
35373;DHT22;21476;51.652;7.852;2022-09-09T10:52:38;22.40;99.90
35373;DHT22;21476;51.652;7.852;2022-09-09T10:55:19;22.30;99.90
35373;DHT22;21476;51.652;7.852;2022-09-09T11:00:45;22.60;99.90
35373;DHT22;21476;51.652;7.852;2022-09-09T11:03:21;22.60;99.90
35373;DHT22;21476;51.652;7.852;2022-09-09T11:05:53;22.70;99.90
35373;DHT22;21476;51.652;7.852;2022-09-09T11:08:25;22.70;99.90
35373;DHT22;21476;51.652;7.852;2022-09-09T11:11:03;23.10;99.90
35373;DHT22;21476;51.652;7.852;2022-09-09T11:13:34;22.80;99.90
35373;DHT22;21476;51.652;7.852;2022-09-09T11:18:45;22.20;99.90
35373;DHT22;21476;51.652;7.852;2022-09-09T11:21:45;22.60;99.90
35373;DHT22;21476;51.652;7.852;2022-09-09T11:26:51;23.40;99.90
35373;DHT22;21476;51.652;7.852;2022-09-09T11:32:22;23.60;99.90
35373;DHT22;21476;51.652;7.852;2022-09-09T11:38:04;23.40;99.90
35373;DHT22;21476;51.652;7.852;2022-09-09T11:40:34;23.50;99.90
35373;DHT22;21476;51.652;7.852;2022-09-09T11:43:12;23.30;99.90
35373;DHT22;21476;51.652;7.852;2022-09-09T11:45:41;23.20;99.90
35373;DHT22;21476;51.652;7.852;2022-09-09T11:48:36;23.10;99.90
35373;DHT22;21476;51.652;7.852;2022-09-09T11:51:10;23.00;99.90
35373;DHT22;21476;51.652;7.852;2022-09-09T11:56:43;22.90;99.90
35373;DHT22;21476;51.652;7.852;2022-09-09T11:59:27;22.90;99.90
35373;DHT22;21476;51.652;7.852;2022-09-09T12:02:23;23.40;99.90
35373;DHT22;21476;51.652;7.852;2022-09-09T12:04:59;23.50;99.90
35373;DHT22;21476;51.652;7.852;2022-09-09T12:07:41;23.50;99.90
35373;DHT22;21476;51.652;7.852;2022-09-09T12:12:47;23.20;99.90
35373;DHT22;21476;51.652;7.852;2022-09-09T12:15:21;23.30;99.90
35373;DHT22;21476;51.652;7.852;2022-09-09T12:17:53;23.30;99.90
35373;DHT22;21476;51.652;7.852;2022-09-09T12:23:10;23.30;99.90
35373;DHT22;21476;51.652;7.852;2022-09-09T12:28:19;23.10;99.90
35373;DHT22;21476;51.652;7.852;2022-09-09T12:33:37;23.20;99.90
35373;DHT22;21476;51.652;7.852;2022-09-09T12:36:06;23.30;99.90
35373;DHT22;21476;51.652;7.852;2022-09-09T12:38:37;22.90;99.90
35373;DHT22;21476;51.652;7.852;2022-09-09T12:41:04;22.70;99.90
35373;DHT22;21476;51.652;7.852;2022-09-09T12:43:30;22.50;99.90
35373;DHT22;21476;51.652;7.852;2022-09-09T12:46:09;22.70;99.90
35373;DHT22;21476;51.652;7.852;2022-09-09T12:48:40;23.00;99.90
35373;DHT22;21476;51.652;7.852;2022-09-09T12:51:24;23.30;99.90
35373;DHT22;21476;51.652;7.852;2022-09-09T12:53:51;23.40;99.90
35373;DHT22;21476;51.652;7.852;2022-09-09T12:56:22;23.80;99.90
35373;DHT22;21476;51.652;7.852;2022-09-09T12:58:50;23.80;99.90
35373;DHT22;21476;51.652;7.852;2022-09-09T13:01:31;23.20;99.90
35373;DHT22;21476;51.652;7.852;2022-09-09T13:03:58;22.70;99.90
35373;DHT22;21476;51.652;7.852;2022-09-09T13:06:25;22.60;99.90
35373;DHT22;21476;51.652;7.852;2022-09-09T13:08:53;22.40;99.90
35373;DHT22;21476;51.652;7.852;2022-09-09T13:11:44;22.30;99.90
35373;DHT22;21476;51.652;7.852;2022-09-09T13:14:20;22.30;99.90
35373;DHT22;21476;51.652;7.852;2022-09-09T13:16:59;22.40;99.90
35373;DHT22;21476;51.652;7.852;2022-09-09T13:19:25;22.50;99.90
35373;DHT22;21476;51.652;7.852;2022-09-09T13:21:54;22.60;99.90
35373;DHT22;21476;51.652;7.852;2022-09-09T13:24:33;22.50;99.90
35373;DHT22;21476;51.652;7.852;2022-09-09T13:27:01;22.50;99.90
35373;DHT22;21476;51.652;7.852;2022-09-09T13:29:27;22.20;99.90
35373;DHT22;21476;51.652;7.852;2022-09-09T13:31:54;21.50;99.90
35373;DHT22;21476;51.652;7.852;2022-09-09T13:34:31;21.20;99.90
35373;DHT22;21476;51.652;7.852;2022-09-09T13:37:05;20.80;99.90
35373;DHT22;21476;51.652;7.852;2022-09-09T13:39:34;20.70;99.90
35373;DHT22;21476;51.652;7.852;2022-09-09T13:42:02;20.50;99.90
35373;DHT22;21476;51.652;7.852;2022-09-09T13:44:38;20.60;99.90
35373;DHT22;21476;51.652;7.852;2022-09-09T13:47:05;20.90;99.90
35373;DHT22;21476;51.652;7.852;2022-09-09T13:49:31;21.40;99.90
35373;DHT22;21476;51.652;7.852;2022-09-09T13:52:25;21.40;99.90
35373;DHT22;21476;51.652;7.852;2022-09-09T13:54:52;21.60;99.90
35373;DHT22;21476;51.652;7.852;2022-09-09T13:57:24;21.60;99.90
35373;DHT22;21476;51.652;7.852;2022-09-09T13:59:52;21.50;99.90
35373;DHT22;21476;51.652;7.852;2022-09-09T14:02:18;21.50;99.90
35373;DHT22;21476;51.652;7.852;2022-09-09T14:04:44;21.40;99.90
35373;DHT22;21476;51.652;7.852;2022-09-09T14:07:14;21.30;99.90
35373;DHT22;21476;51.652;7.852;2022-09-09T14:09:41;21.20;99.90
35373;DHT22;21476;51.652;7.852;2022-09-09T14:12:11;21.00;99.90
35373;DHT22;21476;51.652;7.852;2022-09-09T14:14:37;20.80;99.90
35373;DHT22;21476;51.652;7.852;2022-09-09T14:17:03;20.80;99.90
35373;DHT22;21476;51.652;7.852;2022-09-09T14:19:29;20.70;99.90
35373;DHT22;21476;51.652;7.852;2022-09-09T14:21:56;20.80;99.90
35373;DHT22;21476;51.652;7.852;2022-09-09T14:24:22;20.70;99.90
35373;DHT22;21476;51.652;7.852;2022-09-09T14:26:48;20.70;99.90
35373;DHT22;21476;51.652;7.852;2022-09-09T14:29:14;20.70;99.90
35373;DHT22;21476;51.652;7.852;2022-09-09T14:31:39;20.80;99.90
35373;DHT22;21476;51.652;7.852;2022-09-09T14:34:05;20.90;99.90
35373;DHT22;21476;51.652;7.852;2022-09-09T14:36:31;21.00;99.90
35373;DHT22;21476;51.652;7.852;2022-09-09T14:38:57;21.10;99.90
35373;DHT22;21476;51.652;7.852;2022-09-09T14:41:24;21.20;99.90
35373;DHT22;21476;51.652;7.852;2022-09-09T14:43:51;21.20;99.90
35373;DHT22;21476;51.652;7.852;2022-09-09T14:46:19;21.20;99.90
35373;DHT22;21476;51.652;7.852;2022-09-09T14:48:45;21.20;99.90
35373;DHT22;21476;51.652;7.852;2022-09-09T14:51:22;21.30;99.90
35373;DHT22;21476;51.652;7.852;2022-09-09T14:53:51;21.40;99.90
35373;DHT22;21476;51.652;7.852;2022-09-09T14:56:20;21.50;99.90
35373;DHT22;21476;51.652;7.852;2022-09-09T14:58:47;21.30;99.90
35373;DHT22;21476;51.652;7.852;2022-09-09T15:01:18;21.10;99.90
35373;DHT22;21476;51.652;7.852;2022-09-09T15:03:53;20.80;99.90
35373;DHT22;21476;51.652;7.852;2022-09-09T15:06:20;20.70;99.90
35373;DHT22;21476;51.652;7.852;2022-09-09T15:08:47;20.60;99.90
35373;DHT22;21476;51.652;7.852;2022-09-09T15:11:13;20.50;99.90
35373;DHT22;21476;51.652;7.852;2022-09-09T15:13:41;20.40;99.90
35373;DHT22;21476;51.652;7.852;2022-09-09T15:16:10;20.30;99.90
35373;DHT22;21476;51.652;7.852;2022-09-09T15:18:37;20.30;99.90
35373;DHT22;21476;51.652;7.852;2022-09-09T15:21:09;20.40;99.90
35373;DHT22;21476;51.652;7.852;2022-09-09T15:23:35;20.40;99.90
35373;DHT22;21476;51.652;7.852;2022-09-09T15:26:02;20.50;99.90
35373;DHT22;21476;51.652;7.852;2022-09-09T15:28:28;20.60;99.90
35373;DHT22;21476;51.652;7.852;2022-09-09T15:30:55;20.90;99.90
35373;DHT22;21476;51.652;7.852;2022-09-09T15:33:22;20.90;99.90
35373;DHT22;21476;51.652;7.852;2022-09-09T15:35:48;21.00;99.90
35373;DHT22;21476;51.652;7.852;2022-09-09T15:38:14;21.00;99.90
35373;DHT22;21476;51.652;7.852;2022-09-09T15:40:40;20.90;99.90
35373;DHT22;21476;51.652;7.852;2022-09-09T15:43:06;20.70;99.90
35373;DHT22;21476;51.652;7.852;2022-09-09T15:45:33;20.70;99.90
35373;DHT22;21476;51.652;7.852;2022-09-09T15:48:03;20.70;99.90
35373;DHT22;21476;51.652;7.852;2022-09-09T15:50:30;20.50;99.90
35373;DHT22;21476;51.652;7.852;2022-09-09T15:53:02;20.30;99.90
35373;DHT22;21476;51.652;7.852;2022-09-09T15:55:28;20.30;99.90
35373;DHT22;21476;51.652;7.852;2022-09-09T15:57:54;20.20;99.90
35373;DHT22;21476;51.652;7.852;2022-09-09T16:00:20;20.00;99.90
35373;DHT22;21476;51.652;7.852;2022-09-09T16:02:49;19.90;99.90
35373;DHT22;21476;51.652;7.852;2022-09-09T16:05:15;19.70;99.90
35373;DHT22;21476;51.652;7.852;2022-09-09T16:07:41;19.70;99.90
35373;DHT22;21476;51.652;7.852;2022-09-09T16:10:08;19.60;99.90
35373;DHT22;21476;51.652;7.852;2022-09-09T16:12:34;19.40;99.90
35373;DHT22;21476;51.652;7.852;2022-09-09T16:15:00;19.30;99.90
35373;DHT22;21476;51.652;7.852;2022-09-09T16:17:26;19.30;99.90
35373;DHT22;21476;51.652;7.852;2022-09-09T16:19:53;19.10;99.90
35373;DHT22;21476;51.652;7.852;2022-09-09T16:22:19;19.00;99.90
35373;DHT22;21476;51.652;7.852;2022-09-09T16:24:45;18.80;99.90
35373;DHT22;21476;51.652;7.852;2022-09-09T16:27:11;18.60;99.90
35373;DHT22;21476;51.652;7.852;2022-09-09T16:29:37;18.40;99.90
35373;DHT22;21476;51.652;7.852;2022-09-09T16:32:02;18.20;99.90
35373;DHT22;21476;51.652;7.852;2022-09-09T16:34:29;18.10;99.90
35373;DHT22;21476;51.652;7.852;2022-09-09T16:36:55;17.90;99.90
35373;DHT22;21476;51.652;7.852;2022-09-09T16:39:21;17.90;99.90
35373;DHT22;21476;51.652;7.852;2022-09-09T16:41:48;17.80;99.90
35373;DHT22;21476;51.652;7.852;2022-09-09T16:44:15;17.60;99.90
35373;DHT22;21476;51.652;7.852;2022-09-09T16:46:44;17.60;99.90
35373;DHT22;21476;51.652;7.852;2022-09-09T16:49:13;17.40;99.90
35373;DHT22;21476;51.652;7.852;2022-09-09T16:51:42;17.30;99.90
35373;DHT22;21476;51.652;7.852;2022-09-09T16:54:09;17.20;99.90
35373;DHT22;21476;51.652;7.852;2022-09-09T16:56:38;17.10;99.90
35373;DHT22;21476;51.652;7.852;2022-09-09T16:59:11;17.10;99.90
35373;DHT22;21476;51.652;7.852;2022-09-09T17:01:39;17.10;99.90
35373;DHT22;21476;51.652;7.852;2022-09-09T17:04:09;17.00;99.90
35373;DHT22;21476;51.652;7.852;2022-09-09T17:06:36;16.90;99.90
35373;DHT22;21476;51.652;7.852;2022-09-09T17:09:09;17.00;99.90
35373;DHT22;21476;51.652;7.852;2022-09-09T17:11:36;16.90;99.90
35373;DHT22;21476;51.652;7.852;2022-09-09T17:14:03;16.90;99.90
35373;DHT22;21476;51.652;7.852;2022-09-09T17:16:32;16.90;99.90
35373;DHT22;21476;51.652;7.852;2022-09-09T17:19:00;16.90;99.90
35373;DHT22;21476;51.652;7.852;2022-09-09T17:21:27;16.80;99.90
35373;DHT22;21476;51.652;7.852;2022-09-09T17:23:55;16.80;99.90
35373;DHT22;21476;51.652;7.852;2022-09-09T17:26:22;16.80;99.90
35373;DHT22;21476;51.652;7.852;2022-09-09T17:28:48;16.80;99.90
35373;DHT22;21476;51.652;7.852;2022-09-09T17:31:16;16.80;99.90
35373;DHT22;21476;51.652;7.852;2022-09-09T17:33:44;16.90;99.90
35373;DHT22;21476;51.652;7.852;2022-09-09T17:36:17;16.80;99.90
35373;DHT22;21476;51.652;7.852;2022-09-09T17:38:43;16.90;99.90
35373;DHT22;21476;51.652;7.852;2022-09-09T17:43:45;16.80;99.90
35373;DHT22;21476;51.652;7.852;2022-09-09T17:46:32;16.80;99.90
35373;DHT22;21476;51.652;7.852;2022-09-09T17:49:02;16.80;99.90